Time;durP1;ratioP1;P1;durP2;ratioP2;P2;SDS_P1;SDS_P2;PMS_P1;PMS_P2;Temp;Humidity;BMP_temperature;BMP_pressure;BME280_temperature;BME280_humidity;BME280_pressure;Samples;Min_cycle;Max_cycle;Signal;HPM_P1;HPM_P2
2021/12/26 10:04:19;;;;;;;6.57;3.27;;;-3.80;99.90;;;;;;5090730;28;20455;-60
2021/12/26 10:06:50;;;;;;;5.53;3.00;;;-4.10;99.90;;;;;;5090206;28;20060;-62
2021/12/26 10:09:18;;;;;;;7.57;3.27;;;-4.00;99.90;;;;;;5090504;28;20056;-62
2021/12/26 10:11:57;;;;;;;6.00;3.20;;;-4.00;99.90;;;;;;5089144;28;20098;-61
2021/12/26 10:14:34;;;;;;;8.47;3.27;;;-3.90;99.90;;;;;;5069954;28;20118;-61
2021/12/26 10:17:27;;;;;;;6.03;3.00;;;-3.90;99.90;;;;;;5078748;28;20532;-60
2021/12/26 10:20:07;;;;;;;6.10;3.03;;;-3.90;99.90;;;;;;5083784;28;20056;-59
2021/12/26 10:22:33;;;;;;;4.30;2.70;;;-3.80;99.90;;;;;;5086682;28;20047;-59
2021/12/26 10:25:07;;;;;;;5.50;2.83;;;-3.80;99.90;;;;;;5083923;28;20124;-61
2021/12/26 10:27:32;;;;;;;5.33;2.90;;;-3.80;99.90;;;;;;5069579;28;20049;-60
2021/12/26 10:30:00;;;;;;;7.72;2.95;;;-3.80;99.90;;;;;;5069527;28;20496;-61
2021/12/26 10:32:33;;;;;;;6.90;3.00;;;-3.70;99.90;;;;;;5068967;28;20127;-60
2021/12/26 10:35:09;;;;;;;4.37;2.77;;;-3.70;99.90;;;;;;5069794;28;20123;-61
2021/12/26 10:37:41;;;;;;;4.80;3.00;;;-3.60;99.90;;;;;;5069923;28;20091;-61
2021/12/26 10:40:12;;;;;;;7.13;3.17;;;-3.60;99.90;;;;;;5068807;28;20048;-61
2021/12/26 10:42:43;;;;;;;6.33;2.73;;;-3.60;99.90;;;;;;5069248;28;20498;-60
2021/12/26 10:45:14;;;;;;;6.37;3.27;;;-3.60;99.90;;;;;;5070123;28;20045;-60
2021/12/26 10:47:44;;;;;;;7.33;2.80;;;-3.50;99.90;;;;;;5069845;28;20111;-60
2021/12/26 10:50:13;;;;;;;5.93;2.90;;;-3.50;99.90;;;;;;5052454;28;20037;-60
2021/12/26 10:52:40;;;;;;;5.50;2.80;;;-3.40;99.90;;;;;;5049980;28;20037;-60
2021/12/26 10:55:09;;;;;;;5.77;2.90;;;-3.40;99.90;;;;;;5048869;28;20045;-60
2021/12/26 10:57:49;;;;;;;5.43;2.90;;;-3.40;99.90;;;;;;5049894;28;20060;-60
2021/12/26 11:00:22;;;;;;;4.67;3.10;;;-3.30;99.90;;;;;;5048776;28;20056;-62
2021/12/26 11:03:01;;;;;;;5.27;3.17;;;-3.30;99.90;;;;;;5049493;28;20057;-59
2021/12/26 11:05:42;;;;;;;6.03;3.30;;;-3.20;99.90;;;;;;5048570;28;20071;-60
2021/12/26 11:08:14;;;;;;;7.90;3.03;;;-3.20;99.90;;;;;;5049058;28;20111;-60
2021/12/26 11:10:48;;;;;;;6.93;3.67;;;-3.10;99.90;;;;;;5049202;28;20057;-61
2021/12/26 11:13:19;;;;;;;4.77;2.87;;;-3.10;99.90;;;;;;5048378;28;20057;-61
2021/12/26 11:15:46;;;;;;;5.50;3.03;;;-2.80;99.90;;;;;;5036032;28;20120;-63
2021/12/26 11:18:14;;;;;;;5.63;3.07;;;-3.10;99.90;;;;;;5035866;28;20049;-60
2021/12/26 11:20:45;;;;;;;6.50;3.70;;;-3.00;99.90;;;;;;5035995;28;20374;-61
2021/12/26 11:23:17;;;;;;;4.87;2.80;;;-3.00;99.90;;;;;;5034456;28;20537;-60
2021/12/26 11:25:56;;;;;;;6.10;3.27;;;-2.90;99.90;;;;;;5036184;28;20053;-59
2021/12/26 11:28:27;;;;;;;5.90;3.10;;;-2.90;99.90;;;;;;5035408;28;20049;-59
2021/12/26 11:30:55;;;;;;;6.40;3.10;;;-2.60;99.90;;;;;;5035305;28;20100;-59
2021/12/26 11:33:21;;;;;;;5.13;3.10;;;-2.80;99.90;;;;;;5035065;28;20053;-59
2021/12/26 11:35:50;;;;;;;5.85;3.40;;;-2.70;99.90;;;;;;5036322;28;20141;-61
2021/12/26 11:38:19;;;;;;;6.73;3.33;;;-2.80;99.90;;;;;;5036249;28;20045;-60
2021/12/26 11:40:50;;;;;;;7.37;3.20;;;-2.70;99.90;;;;;;5035577;28;20057;-59
2021/12/26 11:43:30;;;;;;;6.17;3.10;;;-2.00;99.90;;;;;;5035594;28;20496;-60
2021/12/26 11:46:14;;;;;;;5.83;3.10;;;-2.60;99.90;;;;;;5034531;28;20055;-59
2021/12/26 11:48:46;;;;;;;5.23;3.07;;;-2.40;99.90;;;;;;5035711;28;20370;-61
2021/12/26 11:51:33;;;;;;;5.60;3.23;;;-2.50;99.90;;;;;;5034656;28;20100;-59
2021/12/26 11:54:30;;;;;;;5.88;3.25;;;-2.40;99.90;;;;;;5035321;28;20057;-59
2021/12/26 11:57:04;;;;;;;6.17;3.40;;;-2.40;99.90;;;;;;5034406;28;20080;-61
2021/12/26 12:00:05;;;;;;;5.90;3.60;;;-2.30;99.90;;;;;;5034919;28;20049;-59
2021/12/26 12:02:46;;;;;;;6.60;3.57;;;-2.20;99.90;;;;;;5034082;28;20103;-60
2021/12/26 12:05:22;;;;;;;7.93;3.40;;;-2.20;99.90;;;;;;5035311;28;20046;-60
2021/12/26 12:07:54;;;;;;;5.82;3.30;;;-2.10;99.90;;;;;;5035002;28;20508;-61
2021/12/26 12:10:41;;;;;;;7.67;3.80;;;-2.50;99.90;;;;;;5035227;28;20053;-60
2021/12/26 12:13:10;;;;;;;6.65;3.70;;;-2.10;99.90;;;;;;5036278;28;20112;-60
2021/12/26 12:15:47;;;;;;;5.87;3.57;;;-1.80;99.90;;;;;;5035006;28;20042;-59
2021/12/26 12:18:33;;;;;;;8.50;3.73;;;-2.00;99.90;;;;;;5034016;28;20500;-60
2021/12/26 12:21:15;;;;;;;8.00;3.67;;;-1.90;99.90;;;;;;5051547;28;20063;-60
2021/12/26 12:24:00;;;;;;;5.87;3.53;;;-1.90;99.90;;;;;;5033694;28;20152;-60
2021/12/26 12:26:59;;;;;;;8.60;3.73;;;-2.40;99.90;;;;;;5033938;28;20056;-59
2021/12/26 12:29:25;;;;;;;6.03;3.70;;;;;;;;;;5035452;28;20413;-60
2021/12/26 12:32:12;;;;;;;6.93;3.72;;;-1.80;99.90;;;;;;5034069;28;20060;-59
2021/12/26 12:34:51;;;;;;;5.32;3.03;;;-2.20;99.90;;;;;;5034335;28;20139;-60
2021/12/26 12:37:36;;;;;;;7.23;3.70;;;-2.40;99.90;;;;;;5035025;28;20052;-61
2021/12/26 12:40:16;;;;;;;6.73;4.03;;;-0.70;99.90;;;;;;5035076;28;20049;-59
2021/12/26 12:42:59;;;;;;;6.83;3.53;;;-1.70;99.90;;;;;;5034284;28;20068;-59
2021/12/26 12:45:25;;;;;;;6.43;3.63;;;1.90;99.90;;;;;;5042063;28;20511;-60
2021/12/26 12:48:21;;;;;;;6.05;3.47;;;-1.60;99.90;;;;;;5067127;28;20045;-60
2021/12/26 12:50:46;;;;;;;6.10;3.67;;;-1.60;99.90;;;;;;5034448;28;20049;-59
2021/12/26 12:53:39;;;;;;;7.25;3.72;;;-1.50;99.90;;;;;;5017089;28;20053;-61
2021/12/26 12:56:06;;;;;;;7.17;3.63;;;-1.50;99.90;;;;;;5033466;28;20123;-60
2021/12/26 12:58:36;;;;;;;7.23;3.73;;;-1.50;99.90;;;;;;5034339;28;20481;-61
2021/12/26 13:01:06;;;;;;;6.07;3.80;;;-1.50;99.90;;;;;;5033142;28;20053;-61
2021/12/26 13:03:36;;;;;;;6.73;3.80;;;-1.50;99.90;;;;;;5038397;28;20057;-59
2021/12/26 13:06:09;;;;;;;7.10;3.57;;;;;;;;;;5054248;28;20119;-61
2021/12/26 13:08:36;;;;;;;6.53;3.60;;;;;;;;;;5063447;28;20480;-61
2021/12/26 13:11:06;;;;;;;6.57;3.63;;;-1.40;99.90;;;;;;5060967;28;20060;-61
2021/12/26 13:13:31;;;;;;;7.27;3.90;;;-1.40;99.90;;;;;;5060644;28;20037;-60
2021/12/26 13:16:05;;;;;;;6.15;3.33;;;-1.50;99.90;;;;;;5063230;28;20082;-60
2021/12/26 13:18:34;;;;;;;7.43;3.50;;;-1.50;99.90;;;;;;5063680;28;20411;-60
2021/12/26 13:21:04;;;;;;;5.57;3.47;;;-1.40;99.90;;;;;;5062971;28;20074;-60
2021/12/26 13:23:33;;;;;;;10.63;3.90;;;-1.40;99.90;;;;;;5062482;28;20036;-60
2021/12/26 13:26:08;;;;;;;6.67;4.10;;;-1.40;99.90;;;;;;5059445;28;20120;-59
2021/12/26 13:28:35;;;;;;;6.00;3.60;;;-1.40;99.90;;;;;;5062174;28;20446;-61
2021/12/26 13:31:11;;;;;;;7.53;3.60;;;-1.40;99.90;;;;;;5063580;28;20051;-60
2021/12/26 13:33:37;;;;;;;7.13;3.43;;;-1.40;99.90;;;;;;5057955;28;20044;-59
2021/12/26 13:36:21;;;;;;;6.50;3.67;;;-1.40;99.90;;;;;;5053732;28;20049;-60
2021/12/26 13:38:52;;;;;;;7.63;3.77;;;-1.40;99.90;;;;;;5053398;28;20084;-60
2021/12/26 13:41:20;;;;;;;6.93;3.77;;;-1.40;99.90;;;;;;5052120;28;20095;-60
2021/12/26 13:43:47;;;;;;;7.30;3.67;;;-1.40;99.90;;;;;;5052339;28;20045;-60
2021/12/26 13:46:21;;;;;;;7.80;4.20;;;-1.30;99.90;;;;;;5053419;28;20041;-61
2021/12/26 13:48:54;;;;;;;7.87;3.90;;;-1.40;99.90;;;;;;5053854;28;20087;-59
2021/12/26 13:51:23;;;;;;;7.20;3.87;;;-1.30;99.90;;;;;;5055676;28;20058;-60
2021/12/26 13:54:04;;;;;;;7.87;4.13;;;-1.30;99.90;;;;;;5059568;28;20052;-61
2021/12/26 13:56:30;;;;;;;7.23;4.00;;;-1.30;99.90;;;;;;5064706;28;20127;-60
2021/12/26 13:58:57;;;;;;;7.18;3.58;;;-1.30;99.90;;;;;;5055904;28;20045;-60
2021/12/26 14:01:24;;;;;;;6.10;4.03;;;-1.30;99.90;;;;;;5058882;28;20091;-60
2021/12/26 14:03:50;;;;;;;7.57;4.13;;;-1.30;99.90;;;;;;5061537;28;20052;-60
2021/12/26 14:06:28;;;;;;;6.53;3.67;;;-1.30;99.90;;;;;;5060549;28;20048;-61
2021/12/26 14:08:57;;;;;;;6.90;3.80;;;-1.30;99.90;;;;;;5033321;28;20053;-60
2021/12/26 14:11:23;;;;;;;7.17;3.90;;;-1.30;99.90;;;;;;5032262;28;20110;-61
2021/12/26 14:13:51;;;;;;;;;;;-0.60;99.90;;;;;;5034050;28;20386;-59
2021/12/26 14:16:24;;;;;;;7.17;4.37;;;-1.30;99.90;;;;;;5032173;28;20384;-60
2021/12/26 14:18:50;;;;;;;6.53;4.00;;;-1.30;99.90;;;;;;5032319;28;20061;-59
2021/12/26 14:21:18;;;;;;;8.68;4.15;;;-1.30;99.90;;;;;;5032911;28;20378;-60
2021/12/26 14:23:54;;;;;;;10.07;4.30;;;-1.30;99.90;;;;;;5032663;28;20059;-60
2021/12/26 14:26:24;;;;;;;6.88;4.15;;;-1.30;99.90;;;;;;5048861;28;20048;-61
2021/12/26 14:29:01;;;;;;;8.63;4.83;;;-1.30;99.90;;;;;;5052034;28;20045;-60
2021/12/26 14:31:31;;;;;;;6.77;3.93;;;-1.30;99.90;;;;;;5050887;28;20045;-60
2021/12/26 14:33:59;;;;;;;7.07;3.97;;;-1.30;99.90;;;;;;5051102;28;20045;-60
2021/12/26 14:36:24;;;;;;;7.03;4.03;;;-1.30;99.90;;;;;;5052784;28;20053;-60
2021/12/26 14:38:56;;;;;;;8.40;4.20;;;-1.30;99.90;;;;;;5053057;28;20504;-60
2021/12/26 14:41:21;;;;;;;7.43;4.37;;;-1.30;99.90;;;;;;5055025;28;20053;-60
2021/12/26 14:43:47;;;;;;;7.65;4.03;;;-1.30;99.90;;;;;;5062829;28;20033;-60
2021/12/26 14:46:14;;;;;;;6.72;4.00;;;-1.30;99.90;;;;;;5061723;28;20111;-60
2021/12/26 14:48:42;;;;;;;9.10;4.22;;;-1.30;99.90;;;;;;5060558;28;20446;-60
2021/12/26 14:51:28;;;;;;;9.40;5.17;;;-1.30;99.90;;;;;;5062747;28;20501;-60
2021/12/26 14:54:03;;;;;;;7.47;4.43;;;-1.40;99.90;;;;;;5056455;28;20053;-60
2021/12/26 14:56:46;;;;;;;8.60;5.10;;;-0.80;99.90;;;;;;5057166;28;20056;-61
2021/12/26 14:59:33;;;;;;;8.00;4.70;;;-1.40;99.90;;;;;;5056574;28;20465;-60
2021/12/26 15:02:18;;;;;;;10.23;5.25;;;-1.40;99.90;;;;;;5055815;28;20065;-60
2021/12/26 15:04:46;;;;;;;7.53;4.40;;;-1.40;99.90;;;;;;5053351;28;20049;-61
2021/12/26 15:07:17;;;;;;;8.53;5.23;;;-1.40;99.90;;;;;;5055372;28;20431;-61
2021/12/26 15:09:55;;;;;;;7.93;5.13;;;-1.40;99.90;;;;;;5054713;28;20517;-61
2021/12/26 15:12:24;;;;;;;9.53;5.00;;;-1.40;99.90;;;;;;5055602;28;20063;-61
2021/12/26 15:14:51;;;;;;;7.83;4.70;;;-1.50;99.90;;;;;;5055938;28;20041;-61
2021/12/26 15:17:19;;;;;;;9.60;4.77;;;-1.50;99.90;;;;;;5055898;28;20051;-61
2021/12/26 15:19:45;;;;;;;9.83;5.07;;;-1.50;99.90;;;;;;5055125;28;20469;-61
2021/12/26 15:22:11;;;;;;;9.97;5.40;;;-1.50;99.90;;;;;;5055077;28;20037;-61
2021/12/26 15:25:06;;;;;;;8.40;5.57;;;-1.50;99.90;;;;;;5056242;28;20103;-61
2021/12/26 15:27:32;;;;;;;10.87;5.57;;;-1.50;99.90;;;;;;5055825;28;20060;-61
2021/12/26 15:29:58;;;;;;;8.95;5.32;;;-1.60;99.90;;;;;;5054856;28;20045;-61
2021/12/26 15:32:32;;;;;;;9.05;5.25;;;-1.60;99.90;;;;;;5054880;28;20057;-62
2021/12/26 15:34:58;;;;;;;8.77;5.00;;;-1.60;99.90;;;;;;5054694;28;20045;-60
2021/12/26 15:37:24;;;;;;;9.13;5.32;;;-1.60;99.90;;;;;;5055570;28;20045;-60
2021/12/26 15:39:49;;;;;;;11.07;5.85;;;-1.60;99.90;;;;;;5056707;28;20053;-61
2021/12/26 15:42:15;;;;;;;11.60;6.10;;;-1.60;99.90;;;;;;5055850;28;20374;-61
2021/12/26 15:44:41;;;;;;;10.02;5.78;;;-1.70;99.90;;;;;;5055295;28;20489;-60
2021/12/26 15:47:06;;;;;;;8.35;5.43;;;-1.70;99.90;;;;;;5055699;28;20049;-60
2021/12/26 15:49:34;;;;;;;9.18;5.35;;;-1.70;99.90;;;;;;5056352;28;20098;-61
2021/12/26 15:52:02;;;;;;;8.13;4.93;;;-1.70;99.90;;;;;;5056053;28;20142;-60
2021/12/26 15:54:28;;;;;;;11.53;5.70;;;-1.70;99.90;;;;;;5054589;28;20060;-59
2021/12/26 15:56:54;;;;;;;9.88;6.03;;;-1.80;99.90;;;;;;5055475;28;20063;-60
2021/12/26 15:59:19;;;;;;;8.77;5.68;;;-1.80;99.90;;;;;;5056057;28;20132;-60
2021/12/26 16:01:46;;;;;;;9.88;5.25;;;-1.80;99.90;;;;;;5054983;28;20472;-60
2021/12/26 16:04:12;;;;;;;10.67;5.70;;;-1.80;99.90;;;;;;5054219;28;20484;-60
2021/12/26 16:06:41;;;;;;;9.10;5.32;;;-1.10;99.90;;;;;;5038466;28;20103;-60
2021/12/26 16:09:08;;;;;;;9.33;5.40;;;-1.80;99.90;;;;;;5055292;28;20040;-60
2021/12/26 16:11:39;;;;;;;10.23;5.70;;;-1.90;99.90;;;;;;5054354;28;20045;-60
2021/12/26 16:14:05;;;;;;;9.50;5.60;;;-1.90;99.90;;;;;;5054381;28;20520;-60
2021/12/26 16:16:31;;;;;;;;;;;-1.10;99.90;;;;;;5055499;28;20051;-60
2021/12/26 16:18:57;;;;;;;10.73;5.03;;;-1.90;99.90;;;;;;5054902;28;19921;-60
2021/12/26 16:21:22;;;;;;;11.25;6.47;;;-1.90;99.90;;;;;;5054940;28;20048;-60
2021/12/26 16:23:48;;;;;;;11.10;7.55;;;-1.90;99.90;;;;;;5053625;28;20045;-60
2021/12/26 16:26:14;;;;;;;9.07;5.97;;;-1.50;99.90;;;;;;5055030;28;20102;-61
2021/12/26 16:28:40;;;;;;;11.35;6.72;;;-1.90;99.90;;;;;;5054474;28;20166;-61
2021/12/26 16:31:07;;;;;;;10.38;5.70;;;-2.00;99.90;;;;;;5055583;28;20056;-61
2021/12/26 16:33:33;;;;;;;8.03;5.50;;;-2.00;99.90;;;;;;5054875;28;20056;-60
2021/12/26 16:35:58;;;;;;;10.38;5.47;;;-1.20;99.90;;;;;;5054619;28;20049;-60
2021/12/26 16:38:26;;;;;;;9.73;5.18;;;-2.00;99.90;;;;;;5053371;28;20049;-60
2021/12/26 16:40:52;;;;;;;10.13;5.23;;;-2.00;99.90;;;;;;5053534;28;20508;-59
2021/12/26 16:43:19;;;;;;;9.07;5.18;;;-2.00;99.90;;;;;;5054408;28;20045;-60
2021/12/26 16:45:46;;;;;;;9.50;5.40;;;-2.00;99.90;;;;;;5054552;28;20057;-61
2021/12/26 16:48:13;;;;;;;9.60;5.37;;;-2.00;99.90;;;;;;5054799;28;20049;-61
2021/12/26 16:50:39;;;;;;;10.70;6.17;;;-2.00;99.90;;;;;;5054478;28;20095;-60
2021/12/26 16:53:06;;;;;;;9.43;5.57;;;-2.10;99.90;;;;;;5036822;28;20136;-60
2021/12/26 16:55:35;;;;;;;10.77;6.03;;;-2.10;99.90;;;;;;5054363;28;20103;-61
2021/12/26 16:58:01;;;;;;;10.87;5.77;;;-2.10;99.90;;;;;;5054885;28;20037;-62
2021/12/26 17:00:28;;;;;;;11.13;6.37;;;;;;;;;;5053765;28;20143;-60
2021/12/26 17:02:54;;;;;;;10.10;5.38;;;;;;;;;;5054031;28;20099;-60
2021/12/26 17:05:20;;;;;;;;;;;-2.10;99.90;;;;;;5055022;28;20049;-60
2021/12/26 17:07:47;;;;;;;10.87;5.03;;;-2.10;99.90;;;;;;5054746;28;19920;-59
2021/12/26 17:10:13;;;;;;;9.40;5.60;;;;;;;;;;5054164;28;20076;-60
2021/12/26 17:12:38;;;;;;;12.20;6.63;;;-2.20;99.90;;;;;;5053557;28;20496;-60
2021/12/26 17:15:05;;;;;;;10.65;6.05;;;-2.20;99.90;;;;;;5054047;28;20095;-60
2021/12/26 17:17:31;;;;;;;10.43;6.47;;;-2.20;99.90;;;;;;5054075;28;20092;-62
2021/12/26 17:19:57;;;;;;;11.75;7.25;;;-2.20;99.90;;;;;;5054479;28;20091;-60
2021/12/26 17:22:23;;;;;;;11.57;6.87;;;-2.20;99.90;;;;;;5052619;28;20053;-60
2021/12/26 17:24:48;;;;;;;9.70;6.15;;;-2.20;99.90;;;;;;5053959;28;20040;-60
2021/12/26 17:27:19;;;;;;;11.05;6.57;;;-2.20;99.90;;;;;;5053051;28;20051;-60
2021/12/26 17:29:50;;;;;;;11.33;6.87;;;-2.20;99.90;;;;;;5053852;28;20052;-61
2021/12/26 17:32:16;;;;;;;10.30;5.63;;;-2.30;99.90;;;;;;5052851;28;20080;-60
2021/12/26 17:34:42;;;;;;;13.57;6.60;;;-2.20;99.90;;;;;;5053425;28;20542;-60
2021/12/26 17:37:08;;;;;;;15.50;8.50;;;-2.30;99.90;;;;;;5054204;28;20355;-60
2021/12/26 17:39:35;;;;;;;12.98;7.40;;;-2.30;99.90;;;;;;5053945;28;20041;-60
2021/12/26 17:42:01;;;;;;;12.90;6.40;;;-2.30;99.90;;;;;;5052544;28;20107;-60
2021/12/26 17:44:27;;;;;;;12.90;6.95;;;-2.30;99.90;;;;;;5052448;28;20511;-60
2021/12/26 17:46:52;;;;;;;10.90;6.70;;;-2.20;99.90;;;;;;5053575;28;20079;-60
2021/12/26 17:49:18;;;;;;;14.70;7.38;;;-2.20;99.90;;;;;;5053503;28;20477;-60
2021/12/26 17:51:44;;;;;;;14.02;6.63;;;-2.20;99.90;;;;;;5053424;28;20174;-61
2021/12/26 17:54:09;;;;;;;12.98;7.63;;;-2.10;99.90;;;;;;5053821;28;20063;-60
2021/12/26 17:56:35;;;;;;;13.05;6.75;;;-2.10;99.90;;;;;;5054049;28;20079;-61
2021/12/26 17:59:01;;;;;;;12.88;6.70;;;-2.10;99.90;;;;;;5053454;28;20048;-60
2021/12/26 18:01:27;;;;;;;11.50;6.90;;;-2.10;99.90;;;;;;5052173;28;20033;-60
2021/12/26 18:03:52;;;;;;;13.05;6.75;;;-2.00;99.90;;;;;;5051999;28;20060;-60
2021/12/26 18:06:18;;;;;;;10.38;6.72;;;-2.00;99.90;;;;;;5053349;28;20049;-60
2021/12/26 18:08:44;;;;;;;12.25;6.90;;;-2.00;99.90;;;;;;5053400;28;20098;-60
2021/12/26 18:11:11;;;;;;;11.30;5.85;;;-2.00;99.90;;;;;;5052661;28;20049;-60
2021/12/26 18:13:38;;;;;;;13.27;7.67;;;-1.90;99.90;;;;;;5054029;28;20052;-60
2021/12/26 18:16:04;;;;;;;16.27;9.13;;;-1.90;99.90;;;;;;5052334;28;20064;-60
2021/12/26 18:18:30;;;;;;;11.53;6.90;;;-1.90;99.90;;;;;;5052269;28;20486;-60
2021/12/26 18:20:57;;;;;;;13.30;8.00;;;-1.80;99.90;;;;;;5052955;28;20068;-60
2021/12/26 18:23:23;;;;;;;;;;;-1.80;99.90;;;;;;5054102;28;20049;-60
2021/12/26 18:25:49;;;;;;;12.43;6.77;;;-1.80;99.90;;;;;;5056014;28;20388;-61
2021/12/26 18:28:16;;;;;;;11.68;6.68;;;-1.80;99.90;;;;;;5057156;28;20488;-60
2021/12/26 18:30:44;;;;;;;11.20;6.50;;;-1.70;99.90;;;;;;5055794;28;20049;-60
2021/12/26 18:33:09;;;;;;;12.33;6.87;;;-1.70;99.90;;;;;;5057079;28;20044;-60
2021/12/26 18:35:35;;;;;;;12.25;7.68;;;-1.70;99.90;;;;;;5057135;28;20056;-60
2021/12/26 18:38:02;;;;;;;11.60;7.25;;;-1.70;99.90;;;;;;5056139;28;20056;-61
2021/12/26 18:40:30;;;;;;;13.40;8.37;;;-1.70;99.90;;;;;;5055815;28;20045;-61
2021/12/26 18:42:58;;;;;;;15.57;10.07;;;-1.60;99.90;;;;;;5056062;28;20049;-61
2021/12/26 18:45:25;;;;;;;17.00;8.53;;;-1.60;99.90;;;;;;5054994;28;20049;-61
2021/12/26 18:47:51;;;;;;;12.47;7.40;;;-1.60;99.90;;;;;;5055686;28;20056;-60
2021/12/26 18:50:18;;;;;;;13.55;7.85;;;-1.60;99.90;;;;;;5048453;28;20084;-61
2021/12/26 18:52:44;;;;;;;14.77;7.70;;;-1.60;99.90;;;;;;5036075;28;20446;-60
2021/12/26 18:55:11;;;;;;;13.13;7.63;;;-1.50;99.90;;;;;;5037386;28;20140;-61
2021/12/26 18:57:39;;;;;;;13.30;7.73;;;-1.40;99.90;;;;;;5037457;28;20049;-61
2021/12/26 19:00:09;;;;;;;14.07;7.50;;;-1.70;99.90;;;;;;5035743;28;20057;-61
2021/12/26 19:02:35;;;;;;;13.27;7.40;;;-1.50;99.90;;;;;;5036101;28;20392;-62
2021/12/26 19:05:00;;;;;;;12.82;7.80;;;-1.10;99.90;;;;;;5036834;28;20046;-61
2021/12/26 19:07:26;;;;;;;12.13;7.50;;;-1.40;99.90;;;;;;5036540;28;20053;-60
2021/12/26 19:09:52;;;;;;;16.33;8.45;;;-1.40;99.90;;;;;;5036160;28;20072;-60
2021/12/26 19:12:17;;;;;;;17.10;9.90;;;-1.40;99.90;;;;;;5036722;28;20048;-61
2021/12/26 19:14:44;;;;;;;15.00;8.18;;;-1.40;99.90;;;;;;5035392;28;20041;-61
2021/12/26 19:17:11;;;;;;;;;;;-1.40;99.90;;;;;;5036788;28;20053;-61
2021/12/26 19:19:37;;;;;;;14.63;8.57;;;-1.30;99.90;;;;;;5036400;28;19921;-61
2021/12/26 19:22:03;;;;;;;13.80;7.97;;;-1.40;99.90;;;;;;5036711;28;20488;-62
2021/12/26 19:24:29;;;;;;;15.68;8.80;;;-1.30;99.90;;;;;;5035943;28;20045;-61
2021/12/26 19:26:55;;;;;;;13.15;8.07;;;-1.30;99.90;;;;;;5036238;28;20053;-62
2021/12/26 19:29:22;;;;;;;13.73;8.07;;;-1.30;99.90;;;;;;5035233;28;20389;-62
2021/12/26 19:31:48;;;;;;;;;;;-1.30;99.90;;;;;;5035930;28;20045;-61
2021/12/26 19:34:16;;;;;;;15.07;9.27;;;-1.30;99.90;;;;;;5035894;28;20436;-61
2021/12/26 19:36:43;;;;;;;16.13;9.17;;;-1.30;99.90;;;;;;5034738;28;20474;-62
2021/12/26 19:39:10;;;;;;;15.07;8.73;;;-1.20;99.90;;;;;;5036021;28;20045;-61
2021/12/26 19:41:38;;;;;;;;;;;-1.20;99.90;;;;;;5036260;28;20045;-61
2021/12/26 19:44:05;;;;;;;16.50;8.73;;;-1.20;99.90;;;;;;5034672;28;19980;-63
2021/12/26 19:46:32;;;;;;;18.60;8.97;;;-1.20;99.90;;;;;;5035790;28;20060;-61
2021/12/26 19:48:58;;;;;;;14.97;8.70;;;-1.20;99.90;;;;;;5035801;28;20041;-60
2021/12/26 19:51:27;;;;;;;16.08;9.20;;;-1.20;99.90;;;;;;5035811;28;20434;-60
2021/12/26 19:53:53;;;;;;;14.07;8.83;;;-1.10;99.90;;;;;;5035893;28;20446;-61
2021/12/26 19:56:19;;;;;;;;;;;-1.10;99.90;;;;;;5036025;28;20136;-60
2021/12/26 19:58:44;;;;;;;15.63;8.83;;;-1.10;99.90;;;;;;5035701;28;19964;-62
2021/12/26 20:01:10;;;;;;;18.52;9.27;;;-1.10;99.90;;;;;;5035931;28;20049;-61
2021/12/26 20:03:36;;;;;;;16.73;8.82;;;-1.00;99.90;;;;;;5035454;28;20446;-62
2021/12/26 20:06:06;;;;;;;18.35;9.88;;;-1.10;99.90;;;;;;5036055;28;20056;-61
2021/12/26 20:08:33;;;;;;;16.23;8.90;;;-1.00;99.90;;;;;;5035788;28;20052;-60
2021/12/26 20:10:59;;;;;;;18.43;10.60;;;-1.00;99.90;;;;;;5035384;28;20049;-61
2021/12/26 20:13:27;;;;;;;17.53;10.60;;;-1.00;99.90;;;;;;5035204;28;20093;-60
2021/12/26 20:15:55;;;;;;;14.70;9.50;;;-1.00;99.90;;;;;;5035303;28;20064;-61
2021/12/26 20:18:20;;;;;;;17.63;9.53;;;-1.00;99.90;;;;;;5035125;28;20054;-61
2021/12/26 20:20:46;;;;;;;16.67;9.45;;;-1.00;99.90;;;;;;5035207;28;20056;-60
2021/12/26 20:23:12;;;;;;;16.60;9.88;;;-1.00;99.90;;;;;;5035073;28;20042;-60
2021/12/26 20:25:38;;;;;;;17.00;9.73;;;-1.00;99.90;;;;;;5035687;28;20489;-60
2021/12/26 20:28:03;;;;;;;17.92;9.88;;;-1.00;99.90;;;;;;5035081;28;20049;-60
2021/12/26 20:30:30;;;;;;;17.45;10.70;;;-1.00;99.90;;;;;;5035594;28;20046;-61
2021/12/26 20:32:56;;;;;;;;;;;-0.90;99.90;;;;;;5035353;28;20129;-61
2021/12/26 20:35:22;;;;;;;17.37;9.80;;;-1.00;99.90;;;;;;5034890;28;19920;-61
2021/12/26 20:37:47;;;;;;;17.95;10.32;;;-0.90;99.90;;;;;;5034868;28;20060;-60
2021/12/26 20:40:13;;;;;;;16.00;10.68;;;-0.90;99.90;;;;;;5034814;28;20052;-60
2021/12/26 20:42:39;;;;;;;18.65;10.18;;;-0.90;99.90;;;;;;5034743;28;20053;-60
2021/12/26 20:45:08;;;;;;;16.10;10.35;;;-0.90;99.90;;;;;;5034819;28;20046;-61
2021/12/26 20:47:34;;;;;;;17.23;9.70;;;-0.90;99.90;;;;;;5033899;28;20107;-60
2021/12/26 20:50:01;;;;;;;16.57;10.33;;;-0.90;99.90;;;;;;5035714;28;20107;-60
2021/12/26 20:52:26;;;;;;;15.93;9.97;;;-0.80;99.90;;;;;;5054809;28;20047;-61
2021/12/26 20:54:53;;;;;;;17.75;10.35;;;-0.80;99.90;;;;;;5055064;28;20048;-61
2021/12/26 20:57:19;;;;;;;18.40;10.53;;;-0.80;99.90;;;;;;5054513;28;20045;-61
2021/12/26 20:59:45;;;;;;;14.55;9.25;;;-0.80;99.90;;;;;;5053505;28;20124;-62
2021/12/26 21:02:10;;;;;;;16.42;10.50;;;-0.80;99.90;;;;;;5054325;28;20131;-62
2021/12/26 21:04:36;;;;;;;19.13;10.85;;;-0.80;99.90;;;;;;5054943;28;20148;-61
2021/12/26 21:07:02;;;;;;;20.45;11.10;;;-0.80;99.90;;;;;;5053989;28;20041;-61
2021/12/26 21:09:28;;;;;;;16.52;10.40;;;-0.80;99.90;;;;;;5054292;28;20080;-61
2021/12/26 21:11:54;;;;;;;16.75;10.43;;;-0.80;99.90;;;;;;5054131;28;20098;-60
2021/12/26 21:14:20;;;;;;;16.90;10.38;;;-0.80;99.90;;;;;;5053117;28;20045;-61
2021/12/26 21:16:45;;;;;;;26.65;15.68;;;-0.80;99.90;;;;;;5053512;28;20053;-61
2021/12/26 21:19:11;;;;;;;17.65;11.32;;;-0.80;99.90;;;;;;5053375;28;20093;-60
2021/12/26 21:21:37;;;;;;;18.45;11.35;;;-0.80;99.90;;;;;;5053919;28;20127;-60
2021/12/26 21:24:03;;;;;;;19.48;11.23;;;-0.70;99.90;;;;;;5053618;28;20110;-60
2021/12/26 21:26:28;;;;;;;19.27;11.55;;;-0.70;99.90;;;;;;5054024;28;20057;-61
2021/12/26 21:28:54;;;;;;;19.23;11.10;;;-0.70;99.90;;;;;;5054203;28;20080;-58
2021/12/26 21:31:20;;;;;;;19.17;11.27;;;-0.70;99.90;;;;;;5053900;28;20071;-60
2021/12/26 21:33:46;;;;;;;18.33;10.85;;;-0.70;99.90;;;;;;5053817;28;20496;-61
2021/12/26 21:36:11;;;;;;;19.80;11.68;;;-0.70;99.90;;;;;;5053887;28;20051;-62
